sensor_id;sensor_type;location;lat;lon;timestamp;P1;durP1;ratioP1;P2;durP2;ratioP2
15317;SDS011;7759;52.528;13.346;2023-07-20T00:01:45;2.30;;;1.90;;
15317;SDS011;7759;52.528;13.346;2023-07-20T00:04:12;3.22;;;2.05;;
15317;SDS011;7759;52.528;13.346;2023-07-20T00:06:39;1.90;;;1.73;;
15317;SDS011;7759;52.528;13.346;2023-07-20T00:09:08;3.13;;;2.13;;
15317;SDS011;7759;52.528;13.346;2023-07-20T00:11:35;3.70;;;1.90;;
15317;SDS011;7759;52.528;13.346;2023-07-20T00:14:03;3.42;;;1.80;;
15317;SDS011;7759;52.528;13.346;2023-07-20T00:16:29;3.33;;;1.67;;
15317;SDS011;7759;52.528;13.346;2023-07-20T00:18:54;5.30;;;2.20;;
15317;SDS011;7759;52.528;13.346;2023-07-20T00:21:20;2.97;;;1.90;;
15317;SDS011;7759;52.528;13.346;2023-07-20T00:23:46;2.75;;;2.00;;
15317;SDS011;7759;52.528;13.346;2023-07-20T00:26:12;3.42;;;2.30;;
15317;SDS011;7759;52.528;13.346;2023-07-20T00:28:38;2.47;;;2.10;;
15317;SDS011;7759;52.528;13.346;2023-07-20T00:31:04;2.80;;;2.25;;
15317;SDS011;7759;52.528;13.346;2023-07-20T00:33:30;3.17;;;2.40;;
15317;SDS011;7759;52.528;13.346;2023-07-20T00:35:56;3.38;;;2.72;;
15317;SDS011;7759;52.528;13.346;2023-07-20T00:38:22;5.97;;;2.70;;
15317;SDS011;7759;52.528;13.346;2023-07-20T00:40:48;5.35;;;2.55;;
15317;SDS011;7759;52.528;13.346;2023-07-20T00:43:14;4.22;;;2.55;;
15317;SDS011;7759;52.528;13.346;2023-07-20T00:45:40;6.25;;;2.53;;
15317;SDS011;7759;52.528;13.346;2023-07-20T00:48:06;3.45;;;2.17;;
15317;SDS011;7759;52.528;13.346;2023-07-20T00:50:32;2.33;;;2.13;;
15317;SDS011;7759;52.528;13.346;2023-07-20T00:52:59;3.33;;;2.25;;
15317;SDS011;7759;52.528;13.346;2023-07-20T00:55:25;3.38;;;2.50;;
15317;SDS011;7759;52.528;13.346;2023-07-20T00:57:52;5.13;;;2.30;;
15317;SDS011;7759;52.528;13.346;2023-07-20T01:00:18;2.63;;;2.13;;
15317;SDS011;7759;52.528;13.346;2023-07-20T01:02:44;2.67;;;2.47;;
15317;SDS011;7759;52.528;13.346;2023-07-20T01:05:10;2.20;;;2.00;;
15317;SDS011;7759;52.528;13.346;2023-07-20T01:07:46;4.03;;;2.60;;
15317;SDS011;7759;52.528;13.346;2023-07-20T01:12:43;3.28;;;2.10;;
15317;SDS011;7759;52.528;13.346;2023-07-20T01:15:09;2.83;;;2.33;;
15317;SDS011;7759;52.528;13.346;2023-07-20T01:17:35;2.63;;;2.40;;
15317;SDS011;7759;52.528;13.346;2023-07-20T01:20:01;2.58;;;2.38;;
15317;SDS011;7759;52.528;13.346;2023-07-20T01:25:43;4.53;;;2.40;;
15317;SDS011;7759;52.528;13.346;2023-07-20T01:28:31;2.40;;;2.08;;
15317;SDS011;7759;52.528;13.346;2023-07-20T01:31:14;2.45;;;2.25;;
15317;SDS011;7759;52.528;13.346;2023-07-20T01:33:41;4.25;;;2.25;;
15317;SDS011;7759;52.528;13.346;2023-07-20T01:36:08;4.60;;;2.63;;
15317;SDS011;7759;52.528;13.346;2023-07-20T01:38:34;3.50;;;2.30;;
15317;SDS011;7759;52.528;13.346;2023-07-20T01:41:00;2.88;;;2.22;;
15317;SDS011;7759;52.528;13.346;2023-07-20T01:43:27;4.15;;;2.22;;
15317;SDS011;7759;52.528;13.346;2023-07-20T01:45:53;3.67;;;2.40;;
15317;SDS011;7759;52.528;13.346;2023-07-20T01:48:18;2.55;;;2.17;;
15317;SDS011;7759;52.528;13.346;2023-07-20T01:50:44;2.13;;;1.70;;
15317;SDS011;7759;52.528;13.346;2023-07-20T01:53:11;2.17;;;1.98;;
15317;SDS011;7759;52.528;13.346;2023-07-20T01:55:37;3.40;;;2.40;;
15317;SDS011;7759;52.528;13.346;2023-07-20T01:58:03;2.58;;;1.95;;
15317;SDS011;7759;52.528;13.346;2023-07-20T02:00:29;2.75;;;2.20;;
15317;SDS011;7759;52.528;13.346;2023-07-20T02:02:55;2.35;;;2.08;;
15317;SDS011;7759;52.528;13.346;2023-07-20T02:05:21;2.78;;;2.15;;
15317;SDS011;7759;52.528;13.346;2023-07-20T02:07:47;2.38;;;2.17;;
15317;SDS011;7759;52.528;13.346;2023-07-20T02:10:13;3.65;;;2.63;;
15317;SDS011;7759;52.528;13.346;2023-07-20T02:12:39;3.00;;;2.53;;
15317;SDS011;7759;52.528;13.346;2023-07-20T02:15:05;3.05;;;2.45;;
15317;SDS011;7759;52.528;13.346;2023-07-20T02:17:31;2.65;;;2.00;;
15317;SDS011;7759;52.528;13.346;2023-07-20T02:19:57;2.88;;;2.45;;
15317;SDS011;7759;52.528;13.346;2023-07-20T02:22:23;3.25;;;2.53;;
15317;SDS011;7759;52.528;13.346;2023-07-20T02:24:49;3.25;;;2.75;;
15317;SDS011;7759;52.528;13.346;2023-07-20T02:27:15;4.15;;;2.90;;
15317;SDS011;7759;52.528;13.346;2023-07-20T02:29:41;3.13;;;2.58;;
15317;SDS011;7759;52.528;13.346;2023-07-20T02:32:07;2.63;;;2.42;;
15317;SDS011;7759;52.528;13.346;2023-07-20T02:34:34;3.70;;;2.60;;
15317;SDS011;7759;52.528;13.346;2023-07-20T02:37:00;3.10;;;2.80;;
15317;SDS011;7759;52.528;13.346;2023-07-20T02:39:29;3.55;;;2.95;;
15317;SDS011;7759;52.528;13.346;2023-07-20T02:41:55;3.30;;;3.00;;
15317;SDS011;7759;52.528;13.346;2023-07-20T02:44:21;4.03;;;2.72;;
15317;SDS011;7759;52.528;13.346;2023-07-20T02:46:48;3.95;;;3.53;;
15317;SDS011;7759;52.528;13.346;2023-07-20T02:49:17;3.20;;;2.80;;
15317;SDS011;7759;52.528;13.346;2023-07-20T02:51:42;4.85;;;3.10;;
15317;SDS011;7759;52.528;13.346;2023-07-20T02:54:09;5.97;;;3.63;;
15317;SDS011;7759;52.528;13.346;2023-07-20T02:56:35;5.90;;;3.80;;
15317;SDS011;7759;52.528;13.346;2023-07-20T02:59:01;3.40;;;3.10;;
15317;SDS011;7759;52.528;13.346;2023-07-20T03:01:27;4.60;;;3.35;;
15317;SDS011;7759;52.528;13.346;2023-07-20T03:03:54;3.33;;;3.03;;
15317;SDS011;7759;52.528;13.346;2023-07-20T03:06:20;4.93;;;3.90;;
15317;SDS011;7759;52.528;13.346;2023-07-20T03:08:46;5.55;;;3.67;;
15317;SDS011;7759;52.528;13.346;2023-07-20T03:11:14;4.70;;;3.75;;
15317;SDS011;7759;52.528;13.346;2023-07-20T03:13:40;3.80;;;3.42;;
15317;SDS011;7759;52.528;13.346;2023-07-20T03:16:07;3.33;;;3.05;;
15317;SDS011;7759;52.528;13.346;2023-07-20T03:18:36;3.67;;;3.05;;
15317;SDS011;7759;52.528;13.346;2023-07-20T03:21:01;6.53;;;3.90;;
15317;SDS011;7759;52.528;13.346;2023-07-20T03:23:27;4.30;;;3.90;;
15317;SDS011;7759;52.528;13.346;2023-07-20T03:25:53;3.90;;;3.50;;
15317;SDS011;7759;52.528;13.346;2023-07-20T03:28:20;4.95;;;3.55;;
15317;SDS011;7759;52.528;13.346;2023-07-20T03:30:46;5.50;;;4.65;;
15317;SDS011;7759;52.528;13.346;2023-07-20T03:33:11;4.72;;;3.45;;
15317;SDS011;7759;52.528;13.346;2023-07-20T03:35:37;5.38;;;3.83;;
15317;SDS011;7759;52.528;13.346;2023-07-20T03:38:03;6.07;;;4.30;;
15317;SDS011;7759;52.528;13.346;2023-07-20T03:40:29;5.40;;;3.80;;
15317;SDS011;7759;52.528;13.346;2023-07-20T03:42:55;4.53;;;3.90;;
15317;SDS011;7759;52.528;13.346;2023-07-20T03:45:21;5.85;;;4.38;;
15317;SDS011;7759;52.528;13.346;2023-07-20T03:47:49;4.88;;;3.95;;
15317;SDS011;7759;52.528;13.346;2023-07-20T03:50:15;6.78;;;4.03;;
15317;SDS011;7759;52.528;13.346;2023-07-20T03:52:41;6.85;;;4.00;;
15317;SDS011;7759;52.528;13.346;2023-07-20T03:55:07;4.90;;;4.40;;
15317;SDS011;7759;52.528;13.346;2023-07-20T03:57:33;3.38;;;3.08;;
15317;SDS011;7759;52.528;13.346;2023-07-20T03:59:58;5.55;;;4.18;;
15317;SDS011;7759;52.528;13.346;2023-07-20T04:02:24;4.40;;;4.00;;
15317;SDS011;7759;52.528;13.346;2023-07-20T04:04:50;4.25;;;3.78;;
15317;SDS011;7759;52.528;13.346;2023-07-20T04:07:16;5.35;;;3.67;;
15317;SDS011;7759;52.528;13.346;2023-07-20T04:09:42;4.45;;;3.50;;
15317;SDS011;7759;52.528;13.346;2023-07-20T04:12:08;6.78;;;4.18;;
15317;SDS011;7759;52.528;13.346;2023-07-20T04:14:34;4.75;;;3.75;;
15317;SDS011;7759;52.528;13.346;2023-07-20T04:17:00;4.95;;;4.00;;
15317;SDS011;7759;52.528;13.346;2023-07-20T04:19:26;5.70;;;3.72;;
15317;SDS011;7759;52.528;13.346;2023-07-20T04:21:52;4.85;;;4.07;;
15317;SDS011;7759;52.528;13.346;2023-07-20T04:24:17;6.07;;;3.72;;
15317;SDS011;7759;52.528;13.346;2023-07-20T04:26:43;4.32;;;3.75;;
15317;SDS011;7759;52.528;13.346;2023-07-20T04:29:09;4.35;;;3.92;;
15317;SDS011;7759;52.528;13.346;2023-07-20T04:31:35;3.78;;;3.28;;
15317;SDS011;7759;52.528;13.346;2023-07-20T04:34:01;4.65;;;3.58;;
15317;SDS011;7759;52.528;13.346;2023-07-20T04:36:27;5.43;;;4.47;;
15317;SDS011;7759;52.528;13.346;2023-07-20T04:38:53;4.97;;;3.58;;
15317;SDS011;7759;52.528;13.346;2023-07-20T04:41:19;4.45;;;3.45;;
15317;SDS011;7759;52.528;13.346;2023-07-20T04:43:45;4.20;;;3.75;;
15317;SDS011;7759;52.528;13.346;2023-07-20T04:46:11;3.80;;;3.25;;
15317;SDS011;7759;52.528;13.346;2023-07-20T04:48:37;5.40;;;3.97;;
15317;SDS011;7759;52.528;13.346;2023-07-20T04:51:03;4.35;;;3.75;;
15317;SDS011;7759;52.528;13.346;2023-07-20T04:53:29;3.35;;;3.05;;
15317;SDS011;7759;52.528;13.346;2023-07-20T04:55:56;4.03;;;3.20;;
15317;SDS011;7759;52.528;13.346;2023-07-20T04:58:22;7.95;;;3.78;;
15317;SDS011;7759;52.528;13.346;2023-07-20T05:00:48;3.85;;;3.40;;
15317;SDS011;7759;52.528;13.346;2023-07-20T05:03:14;5.25;;;3.55;;
15317;SDS011;7759;52.528;13.346;2023-07-20T05:05:40;4.75;;;3.50;;
15317;SDS011;7759;52.528;13.346;2023-07-20T05:08:06;4.47;;;3.78;;
15317;SDS011;7759;52.528;13.346;2023-07-20T05:10:32;4.07;;;3.47;;
15317;SDS011;7759;52.528;13.346;2023-07-20T05:12:58;3.40;;;3.05;;
15317;SDS011;7759;52.528;13.346;2023-07-20T05:15:24;4.13;;;2.83;;
15317;SDS011;7759;52.528;13.346;2023-07-20T05:17:50;4.65;;;3.03;;
15317;SDS011;7759;52.528;13.346;2023-07-20T05:20:16;3.92;;;3.50;;
15317;SDS011;7759;52.528;13.346;2023-07-20T05:22:42;4.70;;;3.25;;
15317;SDS011;7759;52.528;13.346;2023-07-20T05:25:08;3.35;;;2.40;;
15317;SDS011;7759;52.528;13.346;2023-07-20T05:27:36;4.07;;;3.17;;
15317;SDS011;7759;52.528;13.346;2023-07-20T05:30:02;4.22;;;3.33;;
15317;SDS011;7759;52.528;13.346;2023-07-20T05:32:28;3.40;;;3.10;;
15317;SDS011;7759;52.528;13.346;2023-07-20T05:34:54;3.03;;;2.40;;
15317;SDS011;7759;52.528;13.346;2023-07-20T05:37:20;3.63;;;2.80;;
15317;SDS011;7759;52.528;13.346;2023-07-20T05:39:46;3.85;;;3.50;;
15317;SDS011;7759;52.528;13.346;2023-07-20T05:42:12;4.93;;;3.60;;
15317;SDS011;7759;52.528;13.346;2023-07-20T05:44:38;4.95;;;3.50;;
15317;SDS011;7759;52.528;13.346;2023-07-20T05:47:04;3.35;;;3.03;;
15317;SDS011;7759;52.528;13.346;2023-07-20T05:49:30;3.15;;;2.85;;
15317;SDS011;7759;52.528;13.346;2023-07-20T05:51:56;5.70;;;2.63;;
15317;SDS011;7759;52.528;13.346;2023-07-20T05:54:23;2.83;;;2.25;;
15317;SDS011;7759;52.528;13.346;2023-07-20T05:56:50;4.40;;;2.95;;
15317;SDS011;7759;52.528;13.346;2023-07-20T05:59:16;3.95;;;3.22;;
15317;SDS011;7759;52.528;13.346;2023-07-20T06:01:43;3.60;;;3.22;;
15317;SDS011;7759;52.528;13.346;2023-07-20T06:04:09;3.65;;;2.45;;
15317;SDS011;7759;52.528;13.346;2023-07-20T06:06:35;3.97;;;3.05;;
15317;SDS011;7759;52.528;13.346;2023-07-20T06:09:01;3.55;;;2.80;;
15317;SDS011;7759;52.528;13.346;2023-07-20T06:11:29;3.20;;;2.90;;
15317;SDS011;7759;52.528;13.346;2023-07-20T06:13:55;5.93;;;3.72;;
15317;SDS011;7759;52.528;13.346;2023-07-20T06:16:21;5.85;;;3.20;;
15317;SDS011;7759;52.528;13.346;2023-07-20T06:18:47;3.03;;;2.72;;
15317;SDS011;7759;52.528;13.346;2023-07-20T06:21:13;2.30;;;1.95;;
15317;SDS011;7759;52.528;13.346;2023-07-20T06:23:39;3.63;;;3.03;;
15317;SDS011;7759;52.528;13.346;2023-07-20T06:26:06;5.13;;;2.60;;
15317;SDS011;7759;52.528;13.346;2023-07-20T06:28:32;4.97;;;2.58;;
15317;SDS011;7759;52.528;13.346;2023-07-20T06:31:01;2.58;;;2.38;;
15317;SDS011;7759;52.528;13.346;2023-07-20T06:33:28;4.43;;;2.35;;
15317;SDS011;7759;52.528;13.346;2023-07-20T06:35:54;3.10;;;2.47;;
15317;SDS011;7759;52.528;13.346;2023-07-20T06:38:21;5.25;;;2.38;;
15317;SDS011;7759;52.528;13.346;2023-07-20T06:40:49;3.72;;;2.17;;
15317;SDS011;7759;52.528;13.346;2023-07-20T06:43:15;2.28;;;1.80;;
15317;SDS011;7759;52.528;13.346;2023-07-20T06:45:41;2.30;;;1.88;;
15317;SDS011;7759;52.528;13.346;2023-07-20T06:48:08;4.78;;;3.85;;
15317;SDS011;7759;52.528;13.346;2023-07-20T06:50:34;2.35;;;1.95;;
15317;SDS011;7759;52.528;13.346;2023-07-20T06:53:00;2.83;;;2.05;;
15317;SDS011;7759;52.528;13.346;2023-07-20T06:55:28;2.17;;;1.67;;
15317;SDS011;7759;52.528;13.346;2023-07-20T06:57:54;3.28;;;1.95;;
15317;SDS011;7759;52.528;13.346;2023-07-20T07:00:21;2.10;;;1.65;;
15317;SDS011;7759;52.528;13.346;2023-07-20T07:02:46;1.80;;;1.70;;
15317;SDS011;7759;52.528;13.346;2023-07-20T07:05:12;2.28;;;1.60;;
15317;SDS011;7759;52.528;13.346;2023-07-20T07:07:40;1.60;;;1.50;;
15317;SDS011;7759;52.528;13.346;2023-07-20T07:10:06;1.70;;;1.35;;
15317;SDS011;7759;52.528;13.346;2023-07-20T07:12:33;1.58;;;1.10;;
15317;SDS011;7759;52.528;13.346;2023-07-20T07:14:59;2.55;;;1.40;;
15317;SDS011;7759;52.528;13.346;2023-07-20T07:17:25;1.80;;;1.27;;
15317;SDS011;7759;52.528;13.346;2023-07-20T07:19:51;1.60;;;1.42;;
15317;SDS011;7759;52.528;13.346;2023-07-20T07:22:19;1.60;;;1.35;;
15317;SDS011;7759;52.528;13.346;2023-07-20T07:24:46;3.40;;;1.15;;
15317;SDS011;7759;52.528;13.346;2023-07-20T07:27:12;1.60;;;1.30;;
15317;SDS011;7759;52.528;13.346;2023-07-20T07:29:38;1.60;;;1.10;;
15317;SDS011;7759;52.528;13.346;2023-07-20T07:32:04;3.53;;;0.77;;
15317;SDS011;7759;52.528;13.346;2023-07-20T07:34:30;2.45;;;1.10;;
15317;SDS011;7759;52.528;13.346;2023-07-20T07:36:59;1.10;;;1.00;;
15317;SDS011;7759;52.528;13.346;2023-07-20T07:39:25;1.20;;;1.00;;
15317;SDS011;7759;52.528;13.346;2023-07-20T07:41:51;1.30;;;1.17;;
15317;SDS011;7759;52.528;13.346;2023-07-20T07:44:17;1.33;;;1.23;;
15317;SDS011;7759;52.528;13.346;2023-07-20T07:46:43;1.63;;;1.00;;
15317;SDS011;7759;52.528;13.346;2023-07-20T07:49:09;1.05;;;0.90;;
15317;SDS011;7759;52.528;13.346;2023-07-20T07:51:35;0.90;;;0.90;;
15317;SDS011;7759;52.528;13.346;2023-07-20T07:54:01;1.92;;;1.27;;
15317;SDS011;7759;52.528;13.346;2023-07-20T07:56:27;1.92;;;0.93;;
15317;SDS011;7759;52.528;13.346;2023-07-20T07:58:53;3.53;;;1.17;;
15317;SDS011;7759;52.528;13.346;2023-07-20T08:01:18;2.35;;;1.00;;
15317;SDS011;7759;52.528;13.346;2023-07-20T08:03:45;0.80;;;0.80;;
15317;SDS011;7759;52.528;13.346;2023-07-20T08:06:12;0.70;;;0.70;;
15317;SDS011;7759;52.528;13.346;2023-07-20T08:08:38;0.90;;;0.90;;
15317;SDS011;7759;52.528;13.346;2023-07-20T08:11:04;1.23;;;1.13;;
15317;SDS011;7759;52.528;13.346;2023-07-20T08:13:30;2.10;;;1.02;;
15317;SDS011;7759;52.528;13.346;2023-07-20T08:15:56;1.52;;;0.90;;
15317;SDS011;7759;52.528;13.346;2023-07-20T08:18:22;1.30;;;0.80;;
15317;SDS011;7759;52.528;13.346;2023-07-20T08:20:48;0.80;;;0.70;;
15317;SDS011;7759;52.528;13.346;2023-07-20T08:23:14;0.65;;;0.65;;
15317;SDS011;7759;52.528;13.346;2023-07-20T08:25:40;0.85;;;0.63;;
15317;SDS011;7759;52.528;13.346;2023-07-20T08:28:09;1.15;;;0.70;;
15317;SDS011;7759;52.528;13.346;2023-07-20T08:30:39;0.73;;;0.57;;
15317;SDS011;7759;52.528;13.346;2023-07-20T08:33:06;0.93;;;0.93;;
15317;SDS011;7759;52.528;13.346;2023-07-20T08:35:32;2.38;;;0.93;;
15317;SDS011;7759;52.528;13.346;2023-07-20T08:37:57;1.40;;;0.70;;
15317;SDS011;7759;52.528;13.346;2023-07-20T08:40:23;1.98;;;0.70;;
15317;SDS011;7759;52.528;13.346;2023-07-20T08:42:49;0.68;;;0.60;;
15317;SDS011;7759;52.528;13.346;2023-07-20T08:45:15;0.63;;;0.63;;
15317;SDS011;7759;52.528;13.346;2023-07-20T08:47:42;1.10;;;0.70;;
15317;SDS011;7759;52.528;13.346;2023-07-20T08:50:09;0.70;;;0.70;;
15317;SDS011;7759;52.528;13.346;2023-07-20T08:52:36;0.52;;;0.52;;
15317;SDS011;7759;52.528;13.346;2023-07-20T08:55:02;1.00;;;0.90;;
15317;SDS011;7759;52.528;13.346;2023-07-20T08:57:29;0.68;;;0.65;;
15317;SDS011;7759;52.528;13.346;2023-07-20T08:59:56;1.33;;;0.68;;
15317;SDS011;7759;52.528;13.346;2023-07-20T09:02:22;0.68;;;0.68;;
15317;SDS011;7759;52.528;13.346;2023-07-20T09:04:50;0.82;;;0.80;;
15317;SDS011;7759;52.528;13.346;2023-07-20T09:07:16;0.60;;;0.60;;
15317;SDS011;7759;52.528;13.346;2023-07-20T09:09:43;0.85;;;0.63;;
15317;SDS011;7759;52.528;13.346;2023-07-20T09:12:15;0.68;;;0.68;;
15317;SDS011;7759;52.528;13.346;2023-07-20T09:14:44;0.63;;;0.63;;
15317;SDS011;7759;52.528;13.346;2023-07-20T09:17:12;1.58;;;0.60;;
15317;SDS011;7759;52.528;13.346;2023-07-20T09:19:39;1.25;;;0.70;;
15317;SDS011;7759;52.528;13.346;2023-07-20T09:22:10;0.80;;;0.80;;
15317;SDS011;7759;52.528;13.346;2023-07-20T09:24:36;0.60;;;0.60;;
15317;SDS011;7759;52.528;13.346;2023-07-20T09:27:02;0.73;;;0.70;;
15317;SDS011;7759;52.528;13.346;2023-07-20T09:29:31;0.85;;;0.68;;
15317;SDS011;7759;52.528;13.346;2023-07-20T09:32:03;0.70;;;0.70;;
15317;SDS011;7759;52.528;13.346;2023-07-20T09:34:32;0.70;;;0.70;;
15317;SDS011;7759;52.528;13.346;2023-07-20T09:36:58;1.15;;;0.80;;
15317;SDS011;7759;52.528;13.346;2023-07-20T09:39:25;0.60;;;0.60;;
15317;SDS011;7759;52.528;13.346;2023-07-20T09:41:51;1.85;;;0.68;;
15317;SDS011;7759;52.528;13.346;2023-07-20T09:44:17;2.72;;;0.60;;
15317;SDS011;7759;52.528;13.346;2023-07-20T09:46:44;2.75;;;0.75;;
15317;SDS011;7759;52.528;13.346;2023-07-20T09:49:10;1.15;;;0.63;;
15317;SDS011;7759;52.528;13.346;2023-07-20T09:51:36;0.80;;;0.80;;
15317;SDS011;7759;52.528;13.346;2023-07-20T09:54:02;0.75;;;0.60;;
15317;SDS011;7759;52.528;13.346;2023-07-20T09:56:28;0.93;;;0.60;;
15317;SDS011;7759;52.528;13.346;2023-07-20T09:58:56;0.70;;;0.70;;
15317;SDS011;7759;52.528;13.346;2023-07-20T10:01:22;2.15;;;0.68;;
15317;SDS011;7759;52.528;13.346;2023-07-20T10:03:49;0.70;;;0.70;;
15317;SDS011;7759;52.528;13.346;2023-07-20T10:06:19;0.85;;;0.85;;
15317;SDS011;7759;52.528;13.346;2023-07-20T10:08:46;0.85;;;0.70;;
15317;SDS011;7759;52.528;13.346;2023-07-20T10:11:15;0.70;;;0.60;;
15317;SDS011;7759;52.528;13.346;2023-07-20T10:13:41;1.90;;;0.70;;
15317;SDS011;7759;52.528;13.346;2023-07-20T10:16:10;0.68;;;0.68;;
15317;SDS011;7759;52.528;13.346;2023-07-20T10:18:53;1.02;;;0.80;;
15317;SDS011;7759;52.528;13.346;2023-07-20T10:21:20;0.98;;;0.95;;
15317;SDS011;7759;52.528;13.346;2023-07-20T10:23:48;1.40;;;1.00;;
15317;SDS011;7759;52.528;13.346;2023-07-20T10:26:14;1.50;;;0.68;;
15317;SDS011;7759;52.528;13.346;2023-07-20T10:28:40;0.70;;;0.70;;
15317;SDS011;7759;52.528;13.346;2023-07-20T10:31:07;0.80;;;0.80;;
15317;SDS011;7759;52.528;13.346;2023-07-20T10:33:34;1.75;;;0.90;;
15317;SDS011;7759;52.528;13.346;2023-07-20T10:36:01;2.08;;;0.70;;
15317;SDS011;7759;52.528;13.346;2023-07-20T10:41:20;1.35;;;1.10;;
15317;SDS011;7759;52.528;13.346;2023-07-20T10:43:47;2.15;;;0.93;;
15317;SDS011;7759;52.528;13.346;2023-07-20T10:46:13;1.13;;;0.93;;
15317;SDS011;7759;52.528;13.346;2023-07-20T10:51:24;1.50;;;1.10;;
15317;SDS011;7759;52.528;13.346;2023-07-20T10:53:50;1.52;;;1.10;;
15317;SDS011;7759;52.528;13.346;2023-07-20T10:56:19;1.48;;;1.20;;
15317;SDS011;7759;52.528;13.346;2023-07-20T10:58:46;1.25;;;1.00;;
15317;SDS011;7759;52.528;13.346;2023-07-20T11:01:18;0.95;;;0.90;;
15317;SDS011;7759;52.528;13.346;2023-07-20T11:03:48;4.43;;;1.08;;
15317;SDS011;7759;52.528;13.346;2023-07-20T11:09:03;2.47;;;1.25;;
15317;SDS011;7759;52.528;13.346;2023-07-20T11:11:29;1.80;;;0.80;;
15317;SDS011;7759;52.528;13.346;2023-07-20T11:14:03;1.67;;;0.90;;
15317;SDS011;7759;52.528;13.346;2023-07-20T11:19:04;1.55;;;1.10;;
15317;SDS011;7759;52.528;13.346;2023-07-20T11:21:35;2.30;;;1.23;;
15317;SDS011;7759;52.528;13.346;2023-07-20T11:24:02;1.15;;;1.05;;
15317;SDS011;7759;52.528;13.346;2023-07-20T11:26:28;1.40;;;1.13;;
15317;SDS011;7759;52.528;13.346;2023-07-20T11:28:54;1.00;;;0.80;;
15317;SDS011;7759;52.528;13.346;2023-07-20T11:31:20;1.15;;;1.05;;
15317;SDS011;7759;52.528;13.346;2023-07-20T11:33:46;1.10;;;0.80;;
15317;SDS011;7759;52.528;13.346;2023-07-20T11:36:12;0.88;;;0.88;;
15317;SDS011;7759;52.528;13.346;2023-07-20T11:38:41;2.35;;;0.90;;
15317;SDS011;7759;52.528;13.346;2023-07-20T11:41:08;0.88;;;0.85;;
15317;SDS011;7759;52.528;13.346;2023-07-20T11:43:34;2.33;;;0.90;;
15317;SDS011;7759;52.528;13.346;2023-07-20T11:46:03;0.70;;;0.70;;
15317;SDS011;7759;52.528;13.346;2023-07-20T11:48:30;2.03;;;1.10;;
15317;SDS011;7759;52.528;13.346;2023-07-20T11:50:56;1.23;;;1.00;;
15317;SDS011;7759;52.528;13.346;2023-07-20T11:53:21;0.82;;;0.73;;
15317;SDS011;7759;52.528;13.346;2023-07-20T11:55:50;0.70;;;0.70;;
15317;SDS011;7759;52.528;13.346;2023-07-20T11:58:15;0.82;;;0.80;;
15317;SDS011;7759;52.528;13.346;2023-07-20T12:00:43;1.00;;;0.57;;
15317;SDS011;7759;52.528;13.346;2023-07-20T12:03:10;0.90;;;0.50;;
15317;SDS011;7759;52.528;13.346;2023-07-20T12:05:38;0.80;;;0.80;;
15317;SDS011;7759;52.528;13.346;2023-07-20T12:08:04;0.85;;;0.85;;
15317;SDS011;7759;52.528;13.346;2023-07-20T12:10:30;3.47;;;0.70;;
15317;SDS011;7759;52.528;13.346;2023-07-20T12:13:02;1.75;;;0.50;;
15317;SDS011;7759;52.528;13.346;2023-07-20T12:15:28;0.60;;;0.60;;
15317;SDS011;7759;52.528;13.346;2023-07-20T12:17:59;0.50;;;0.50;;
15317;SDS011;7759;52.528;13.346;2023-07-20T12:23:04;1.20;;;0.60;;
15317;SDS011;7759;52.528;13.346;2023-07-20T12:25:36;0.65;;;0.63;;
15317;SDS011;7759;52.528;13.346;2023-07-20T12:28:04;1.10;;;0.70;;
15317;SDS011;7759;52.528;13.346;2023-07-20T12:30:30;0.57;;;0.57;;
15317;SDS011;7759;52.528;13.346;2023-07-20T12:32:56;0.73;;;0.60;;
15317;SDS011;7759;52.528;13.346;2023-07-20T12:35:22;1.27;;;0.70;;
15317;SDS011;7759;52.528;13.346;2023-07-20T12:37:48;3.60;;;1.08;;
15317;SDS011;7759;52.528;13.346;2023-07-20T12:40:15;1.05;;;0.68;;
15317;SDS011;7759;52.528;13.346;2023-07-20T12:42:42;1.77;;;1.20;;
15317;SDS011;7759;52.528;13.346;2023-07-20T12:45:09;3.03;;;0.85;;
15317;SDS011;7759;52.528;13.346;2023-07-20T12:47:36;1.60;;;0.90;;
15317;SDS011;7759;52.528;13.346;2023-07-20T12:50:02;0.93;;;0.75;;
15317;SDS011;7759;52.528;13.346;2023-07-20T12:52:31;0.60;;;0.60;;
15317;SDS011;7759;52.528;13.346;2023-07-20T12:54:57;1.08;;;0.70;;
15317;SDS011;7759;52.528;13.346;2023-07-20T12:57:23;2.75;;;1.02;;
15317;SDS011;7759;52.528;13.346;2023-07-20T12:59:49;2.08;;;0.60;;
15317;SDS011;7759;52.528;13.346;2023-07-20T13:02:15;0.63;;;0.55;;
15317;SDS011;7759;52.528;13.346;2023-07-20T13:04:41;0.95;;;0.50;;
15317;SDS011;7759;52.528;13.346;2023-07-20T13:07:09;2.50;;;1.20;;
15317;SDS011;7759;52.528;13.346;2023-07-20T13:09:36;0.93;;;0.80;;
15317;SDS011;7759;52.528;13.346;2023-07-20T13:12:02;0.93;;;0.80;;
15317;SDS011;7759;52.528;13.346;2023-07-20T13:14:28;1.98;;;0.80;;
15317;SDS011;7759;52.528;13.346;2023-07-20T13:16:57;0.70;;;0.70;;
15317;SDS011;7759;52.528;13.346;2023-07-20T13:19:23;0.77;;;0.60;;
15317;SDS011;7759;52.528;13.346;2023-07-20T13:21:49;1.00;;;0.90;;
15317;SDS011;7759;52.528;13.346;2023-07-20T13:24:18;2.58;;;0.77;;
15317;SDS011;7759;52.528;13.346;2023-07-20T13:26:43;0.50;;;0.50;;
15317;SDS011;7759;52.528;13.346;2023-07-20T13:29:09;0.73;;;0.73;;
15317;SDS011;7759;52.528;13.346;2023-07-20T13:31:35;1.38;;;0.93;;
15317;SDS011;7759;52.528;13.346;2023-07-20T13:34:01;0.68;;;0.60;;
15317;SDS011;7759;52.528;13.346;2023-07-20T13:36:27;1.83;;;0.70;;
15317;SDS011;7759;52.528;13.346;2023-07-20T13:38:53;0.63;;;0.60;;
15317;SDS011;7759;52.528;13.346;2023-07-20T13:41:19;0.80;;;0.80;;
15317;SDS011;7759;52.528;13.346;2023-07-20T13:43:45;0.63;;;0.63;;
15317;SDS011;7759;52.528;13.346;2023-07-20T13:46:11;1.55;;;0.70;;
15317;SDS011;7759;52.528;13.346;2023-07-20T13:48:37;0.63;;;0.60;;
15317;SDS011;7759;52.528;13.346;2023-07-20T13:51:03;0.75;;;0.75;;
15317;SDS011;7759;52.528;13.346;2023-07-20T13:53:29;2.85;;;1.95;;
15317;SDS011;7759;52.528;13.346;2023-07-20T13:55:55;1.70;;;1.10;;
15317;SDS011;7759;52.528;13.346;2023-07-20T13:58:22;1.95;;;0.70;;
15317;SDS011;7759;52.528;13.346;2023-07-20T14:00:47;1.20;;;0.80;;
15317;SDS011;7759;52.528;13.346;2023-07-20T14:03:13;1.02;;;0.90;;
15317;SDS011;7759;52.528;13.346;2023-07-20T14:05:39;0.80;;;0.80;;
15317;SDS011;7759;52.528;13.346;2023-07-20T14:08:05;1.20;;;0.65;;
15317;SDS011;7759;52.528;13.346;2023-07-20T14:10:31;0.82;;;0.80;;
15317;SDS011;7759;52.528;13.346;2023-07-20T14:12:57;0.63;;;0.60;;
15317;SDS011;7759;52.528;13.346;2023-07-20T14:15:23;0.88;;;0.63;;
15317;SDS011;7759;52.528;13.346;2023-07-20T14:17:49;0.80;;;0.80;;
15317;SDS011;7759;52.528;13.346;2023-07-20T14:20:14;0.82;;;0.77;;
15317;SDS011;7759;52.528;13.346;2023-07-20T14:22:40;0.77;;;0.70;;
15317;SDS011;7759;52.528;13.346;2023-07-20T14:25:07;1.45;;;0.70;;
15317;SDS011;7759;52.528;13.346;2023-07-20T14:27:33;0.93;;;0.90;;
15317;SDS011;7759;52.528;13.346;2023-07-20T14:29:58;3.80;;;1.00;;
15317;SDS011;7759;52.528;13.346;2023-07-20T14:32:25;2.55;;;0.80;;
15317;SDS011;7759;52.528;13.346;2023-07-20T14:34:51;1.65;;;1.13;;
15317;SDS011;7759;52.528;13.346;2023-07-20T14:37:17;1.27;;;0.60;;
15317;SDS011;7759;52.528;13.346;2023-07-20T14:39:43;1.00;;;0.80;;
15317;SDS011;7759;52.528;13.346;2023-07-20T14:42:09;1.10;;;0.80;;
15317;SDS011;7759;52.528;13.346;2023-07-20T14:44:35;0.40;;;0.40;;
15317;SDS011;7759;52.528;13.346;2023-07-20T14:47:01;0.77;;;0.77;;
15317;SDS011;7759;52.528;13.346;2023-07-20T14:49:26;1.25;;;0.75;;
15317;SDS011;7759;52.528;13.346;2023-07-20T14:51:52;0.60;;;0.60;;
15317;SDS011;7759;52.528;13.346;2023-07-20T14:54:18;2.28;;;0.90;;
15317;SDS011;7759;52.528;13.346;2023-07-20T14:56:51;0.60;;;0.57;;
15317;SDS011;7759;52.528;13.346;2023-07-20T14:59:19;0.93;;;0.82;;
15317;SDS011;7759;52.528;13.346;2023-07-20T15:01:45;1.00;;;0.60;;
15317;SDS011;7759;52.528;13.346;2023-07-20T15:04:11;0.82;;;0.63;;